sensor_id;sensor_type;location;lat;lon;timestamp;P1;durP1;ratioP1;P2;durP2;ratioP2
2213;SDS011;1113;42.018;23.986;2022-08-21T00:00:18;12.20;;;8.80;;
2213;SDS011;1113;42.018;23.986;2022-08-21T00:02:47;12.33;;;9.10;;
2213;SDS011;1113;42.018;23.986;2022-08-21T00:05:14;15.80;;;11.03;;
2213;SDS011;1113;42.018;23.986;2022-08-21T00:07:41;11.30;;;8.80;;
2213;SDS011;1113;42.018;23.986;2022-08-21T00:10:08;13.90;;;9.80;;
2213;SDS011;1113;42.018;23.986;2022-08-21T00:12:34;14.93;;;10.07;;
2213;SDS011;1113;42.018;23.986;2022-08-21T00:15:03;14.23;;;9.40;;
2213;SDS011;1113;42.018;23.986;2022-08-21T00:17:30;17.27;;;8.50;;
2213;SDS011;1113;42.018;23.986;2022-08-21T00:19:56;13.90;;;10.70;;
2213;SDS011;1113;42.018;23.986;2022-08-21T00:22:23;13.93;;;9.83;;
2213;SDS011;1113;42.018;23.986;2022-08-21T00:24:49;14.00;;;9.67;;
2213;SDS011;1113;42.018;23.986;2022-08-21T00:27:16;13.73;;;10.47;;
2213;SDS011;1113;42.018;23.986;2022-08-21T00:29:43;12.00;;;9.13;;
2213;SDS011;1113;42.018;23.986;2022-08-21T00:32:10;13.70;;;10.87;;
2213;SDS011;1113;42.018;23.986;2022-08-21T00:34:37;20.27;;;11.40;;
2213;SDS011;1113;42.018;23.986;2022-08-21T00:37:04;16.40;;;13.10;;
2213;SDS011;1113;42.018;23.986;2022-08-21T00:39:30;17.20;;;11.70;;
2213;SDS011;1113;42.018;23.986;2022-08-21T00:41:57;16.30;;;12.93;;
2213;SDS011;1113;42.018;23.986;2022-08-21T00:44:23;16.13;;;12.33;;
2213;SDS011;1113;42.018;23.986;2022-08-21T00:46:50;16.53;;;11.90;;
2213;SDS011;1113;42.018;23.986;2022-08-21T00:49:19;18.43;;;12.70;;
2213;SDS011;1113;42.018;23.986;2022-08-21T00:51:47;15.83;;;10.30;;
2213;SDS011;1113;42.018;23.986;2022-08-21T00:54:14;16.77;;;11.40;;
2213;SDS011;1113;42.018;23.986;2022-08-21T00:56:41;17.33;;;11.43;;
2213;SDS011;1113;42.018;23.986;2022-08-21T00:59:07;11.67;;;8.40;;
2213;SDS011;1113;42.018;23.986;2022-08-21T01:01:34;14.67;;;9.23;;
2213;SDS011;1113;42.018;23.986;2022-08-21T01:04:01;14.77;;;9.90;;
2213;SDS011;1113;42.018;23.986;2022-08-21T01:06:29;18.03;;;9.47;;
2213;SDS011;1113;42.018;23.986;2022-08-21T01:08:55;11.63;;;8.40;;
2213;SDS011;1113;42.018;23.986;2022-08-21T01:11:22;13.30;;;9.07;;
2213;SDS011;1113;42.018;23.986;2022-08-21T01:13:48;11.10;;;8.40;;
2213;SDS011;1113;42.018;23.986;2022-08-21T01:16:17;14.37;;;8.93;;
2213;SDS011;1113;42.018;23.986;2022-08-21T01:18:45;8.87;;;6.27;;
2213;SDS011;1113;42.018;23.986;2022-08-21T01:21:15;11.13;;;6.60;;
2213;SDS011;1113;42.018;23.986;2022-08-21T01:23:43;7.47;;;5.90;;
2213;SDS011;1113;42.018;23.986;2022-08-21T01:26:10;8.50;;;6.43;;
2213;SDS011;1113;42.018;23.986;2022-08-21T01:28:37;7.00;;;6.30;;
2213;SDS011;1113;42.018;23.986;2022-08-21T01:31:05;12.97;;;7.43;;
2213;SDS011;1113;42.018;23.986;2022-08-21T01:33:32;12.03;;;6.83;;
2213;SDS011;1113;42.018;23.986;2022-08-21T01:35:59;21.50;;;8.47;;
2213;SDS011;1113;42.018;23.986;2022-08-21T01:38:27;15.47;;;8.03;;
2213;SDS011;1113;42.018;23.986;2022-08-21T01:40:53;11.17;;;7.90;;
2213;SDS011;1113;42.018;23.986;2022-08-21T01:43:20;11.43;;;7.90;;
2213;SDS011;1113;42.018;23.986;2022-08-21T01:45:47;10.60;;;6.70;;
2213;SDS011;1113;42.018;23.986;2022-08-21T01:48:13;12.73;;;7.80;;
2213;SDS011;1113;42.018;23.986;2022-08-21T01:50:40;13.63;;;8.00;;
2213;SDS011;1113;42.018;23.986;2022-08-21T01:53:06;7.60;;;6.80;;
2213;SDS011;1113;42.018;23.986;2022-08-21T01:55:34;10.57;;;6.70;;
2213;SDS011;1113;42.018;23.986;2022-08-21T01:58:01;10.80;;;6.53;;
2213;SDS011;1113;42.018;23.986;2022-08-21T02:00:27;9.03;;;6.63;;
2213;SDS011;1113;42.018;23.986;2022-08-21T02:02:54;7.87;;;6.63;;
2213;SDS011;1113;42.018;23.986;2022-08-21T02:05:21;9.60;;;6.57;;
2213;SDS011;1113;42.018;23.986;2022-08-21T02:07:48;8.50;;;7.50;;
2213;SDS011;1113;42.018;23.986;2022-08-21T02:10:16;11.13;;;7.60;;
2213;SDS011;1113;42.018;23.986;2022-08-21T02:12:44;10.80;;;7.10;;
2213;SDS011;1113;42.018;23.986;2022-08-21T02:15:11;12.30;;;6.97;;
2213;SDS011;1113;42.018;23.986;2022-08-21T02:17:38;8.80;;;6.47;;
2213;SDS011;1113;42.018;23.986;2022-08-21T02:20:05;8.10;;;6.70;;
2213;SDS011;1113;42.018;23.986;2022-08-21T02:22:32;11.20;;;7.90;;
2213;SDS011;1113;42.018;23.986;2022-08-21T02:24:58;9.90;;;8.20;;
2213;SDS011;1113;42.018;23.986;2022-08-21T02:27:25;12.17;;;9.17;;
2213;SDS011;1113;42.018;23.986;2022-08-21T02:29:53;10.10;;;7.60;;
2213;SDS011;1113;42.018;23.986;2022-08-21T02:32:20;14.00;;;8.87;;
2213;SDS011;1113;42.018;23.986;2022-08-21T02:34:47;12.77;;;8.47;;
2213;SDS011;1113;42.018;23.986;2022-08-21T02:37:13;12.30;;;8.53;;
2213;SDS011;1113;42.018;23.986;2022-08-21T02:39:40;11.37;;;8.87;;
2213;SDS011;1113;42.018;23.986;2022-08-21T02:42:06;12.13;;;10.20;;
2213;SDS011;1113;42.018;23.986;2022-08-21T02:44:33;12.23;;;9.00;;
2213;SDS011;1113;42.018;23.986;2022-08-21T02:47:01;12.20;;;9.83;;
2213;SDS011;1113;42.018;23.986;2022-08-21T02:49:27;11.37;;;8.67;;
2213;SDS011;1113;42.018;23.986;2022-08-21T02:51:54;12.77;;;8.60;;
2213;SDS011;1113;42.018;23.986;2022-08-21T02:54:21;11.33;;;7.43;;
2213;SDS011;1113;42.018;23.986;2022-08-21T02:56:47;12.83;;;8.40;;
2213;SDS011;1113;42.018;23.986;2022-08-21T02:59:14;11.73;;;8.30;;
2213;SDS011;1113;42.018;23.986;2022-08-21T03:01:40;10.00;;;8.17;;
2213;SDS011;1113;42.018;23.986;2022-08-21T03:04:08;13.83;;;8.70;;
2213;SDS011;1113;42.018;23.986;2022-08-21T03:06:35;11.00;;;9.80;;
2213;SDS011;1113;42.018;23.986;2022-08-21T03:09:02;11.93;;;8.87;;
2213;SDS011;1113;42.018;23.986;2022-08-21T03:11:28;11.83;;;9.37;;
2213;SDS011;1113;42.018;23.986;2022-08-21T03:13:55;14.90;;;10.50;;
2213;SDS011;1113;42.018;23.986;2022-08-21T03:16:21;13.43;;;9.53;;
2213;SDS011;1113;42.018;23.986;2022-08-21T03:18:48;18.63;;;10.83;;
2213;SDS011;1113;42.018;23.986;2022-08-21T03:21:16;12.43;;;10.20;;
2213;SDS011;1113;42.018;23.986;2022-08-21T03:23:43;14.63;;;11.17;;
2213;SDS011;1113;42.018;23.986;2022-08-21T03:26:10;13.27;;;10.30;;
2213;SDS011;1113;42.018;23.986;2022-08-21T03:28:37;15.30;;;9.60;;
2213;SDS011;1113;42.018;23.986;2022-08-21T03:31:04;15.63;;;9.87;;
2213;SDS011;1113;42.018;23.986;2022-08-21T03:33:30;16.27;;;11.07;;
2213;SDS011;1113;42.018;23.986;2022-08-21T03:35:58;10.87;;;9.47;;
2213;SDS011;1113;42.018;23.986;2022-08-21T03:38:27;10.20;;;8.57;;
2213;SDS011;1113;42.018;23.986;2022-08-21T03:40:54;14.93;;;9.83;;
2213;SDS011;1113;42.018;23.986;2022-08-21T03:43:21;12.43;;;9.47;;
2213;SDS011;1113;42.018;23.986;2022-08-21T03:45:47;15.93;;;10.30;;
2213;SDS011;1113;42.018;23.986;2022-08-21T03:48:14;12.83;;;10.90;;
2213;SDS011;1113;42.018;23.986;2022-08-21T03:50:41;12.53;;;9.83;;
2213;SDS011;1113;42.018;23.986;2022-08-21T03:53:11;12.37;;;9.30;;
2213;SDS011;1113;42.018;23.986;2022-08-21T03:55:39;12.90;;;10.07;;
2213;SDS011;1113;42.018;23.986;2022-08-21T03:58:06;14.13;;;10.30;;
2213;SDS011;1113;42.018;23.986;2022-08-21T04:00:32;13.23;;;9.90;;
2213;SDS011;1113;42.018;23.986;2022-08-21T04:02:59;12.03;;;9.97;;
2213;SDS011;1113;42.018;23.986;2022-08-21T04:05:25;14.93;;;10.60;;
2213;SDS011;1113;42.018;23.986;2022-08-21T04:07:55;9.60;;;8.60;;
2213;SDS011;1113;42.018;23.986;2022-08-21T04:10:23;10.60;;;8.03;;
2213;SDS011;1113;42.018;23.986;2022-08-21T04:12:51;9.10;;;7.20;;
2213;SDS011;1113;42.018;23.986;2022-08-21T04:15:19;10.93;;;8.23;;
2213;SDS011;1113;42.018;23.986;2022-08-21T04:17:45;10.73;;;7.70;;
2213;SDS011;1113;42.018;23.986;2022-08-21T04:20:12;12.87;;;9.80;;
2213;SDS011;1113;42.018;23.986;2022-08-21T04:22:38;11.40;;;9.67;;
2213;SDS011;1113;42.018;23.986;2022-08-21T04:25:05;11.30;;;9.20;;
2213;SDS011;1113;42.018;23.986;2022-08-21T04:27:32;13.73;;;10.40;;
2213;SDS011;1113;42.018;23.986;2022-08-21T04:30:00;14.27;;;8.80;;
2213;SDS011;1113;42.018;23.986;2022-08-21T04:32:27;13.30;;;9.50;;
2213;SDS011;1113;42.018;23.986;2022-08-21T04:34:57;11.60;;;9.63;;
2213;SDS011;1113;42.018;23.986;2022-08-21T04:37:25;12.33;;;9.40;;
2213;SDS011;1113;42.018;23.986;2022-08-21T04:39:51;12.37;;;8.23;;
2213;SDS011;1113;42.018;23.986;2022-08-21T04:42:18;8.10;;;6.70;;
2213;SDS011;1113;42.018;23.986;2022-08-21T04:44:44;9.73;;;6.90;;
2213;SDS011;1113;42.018;23.986;2022-08-21T04:47:15;9.43;;;8.33;;
2213;SDS011;1113;42.018;23.986;2022-08-21T04:49:42;10.07;;;8.27;;
2213;SDS011;1113;42.018;23.986;2022-08-21T04:52:08;9.77;;;7.50;;
2213;SDS011;1113;42.018;23.986;2022-08-21T04:54:35;10.00;;;7.40;;
2213;SDS011;1113;42.018;23.986;2022-08-21T04:57:05;9.20;;;7.83;;
2213;SDS011;1113;42.018;23.986;2022-08-21T04:59:33;9.60;;;7.50;;
2213;SDS011;1113;42.018;23.986;2022-08-21T05:02:01;10.70;;;7.80;;
2213;SDS011;1113;42.018;23.986;2022-08-21T05:04:30;11.43;;;8.50;;
2213;SDS011;1113;42.018;23.986;2022-08-21T05:06:59;14.13;;;9.30;;
2213;SDS011;1113;42.018;23.986;2022-08-21T05:09:26;9.50;;;7.70;;
2213;SDS011;1113;42.018;23.986;2022-08-21T05:11:53;12.03;;;8.23;;
2213;SDS011;1113;42.018;23.986;2022-08-21T05:14:20;11.10;;;7.67;;
2213;SDS011;1113;42.018;23.986;2022-08-21T05:16:47;10.50;;;7.80;;
2213;SDS011;1113;42.018;23.986;2022-08-21T05:19:14;8.77;;;7.47;;
2213;SDS011;1113;42.018;23.986;2022-08-21T05:21:42;9.47;;;6.63;;
2213;SDS011;1113;42.018;23.986;2022-08-21T05:24:09;7.37;;;5.57;;
2213;SDS011;1113;42.018;23.986;2022-08-21T05:26:36;7.97;;;5.20;;
2213;SDS011;1113;42.018;23.986;2022-08-21T05:29:04;7.70;;;5.43;;
2213;SDS011;1113;42.018;23.986;2022-08-21T05:31:30;7.73;;;5.87;;
2213;SDS011;1113;42.018;23.986;2022-08-21T05:33:57;8.07;;;6.20;;
2213;SDS011;1113;42.018;23.986;2022-08-21T05:36:24;13.23;;;6.60;;
2213;SDS011;1113;42.018;23.986;2022-08-21T05:38:52;9.47;;;6.47;;
2213;SDS011;1113;42.018;23.986;2022-08-21T05:41:19;8.47;;;7.60;;
2213;SDS011;1113;42.018;23.986;2022-08-21T05:43:45;9.33;;;6.50;;
2213;SDS011;1113;42.018;23.986;2022-08-21T05:46:12;10.13;;;7.23;;
2213;SDS011;1113;42.018;23.986;2022-08-21T05:48:41;10.90;;;7.60;;
2213;SDS011;1113;42.018;23.986;2022-08-21T05:51:09;10.50;;;8.90;;
2213;SDS011;1113;42.018;23.986;2022-08-21T05:53:36;10.57;;;8.93;;
2213;SDS011;1113;42.018;23.986;2022-08-21T05:56:04;12.10;;;10.90;;
2213;SDS011;1113;42.018;23.986;2022-08-21T05:58:32;11.10;;;9.27;;
2213;SDS011;1113;42.018;23.986;2022-08-21T06:00:59;11.03;;;9.90;;
2213;SDS011;1113;42.018;23.986;2022-08-21T06:03:28;12.13;;;9.07;;
2213;SDS011;1113;42.018;23.986;2022-08-21T06:05:55;10.23;;;9.00;;
2213;SDS011;1113;42.018;23.986;2022-08-21T06:08:22;13.70;;;9.50;;
2213;SDS011;1113;42.018;23.986;2022-08-21T06:10:49;10.60;;;7.90;;
2213;SDS011;1113;42.018;23.986;2022-08-21T06:13:17;11.50;;;7.87;;
2213;SDS011;1113;42.018;23.986;2022-08-21T06:15:44;11.50;;;9.63;;
2213;SDS011;1113;42.018;23.986;2022-08-21T06:18:11;11.83;;;10.63;;
2213;SDS011;1113;42.018;23.986;2022-08-21T06:20:37;10.43;;;9.30;;
2213;SDS011;1113;42.018;23.986;2022-08-21T06:23:04;12.20;;;9.97;;
2213;SDS011;1113;42.018;23.986;2022-08-21T06:25:30;10.80;;;9.00;;
2213;SDS011;1113;42.018;23.986;2022-08-21T06:28:00;12.90;;;9.40;;
2213;SDS011;1113;42.018;23.986;2022-08-21T06:30:28;12.10;;;9.43;;
2213;SDS011;1113;42.018;23.986;2022-08-21T06:32:55;11.63;;;8.83;;
2213;SDS011;1113;42.018;23.986;2022-08-21T06:35:25;10.83;;;9.73;;
2213;SDS011;1113;42.018;23.986;2022-08-21T06:37:54;14.70;;;11.77;;
2213;SDS011;1113;42.018;23.986;2022-08-21T06:40:20;14.10;;;12.37;;
2213;SDS011;1113;42.018;23.986;2022-08-21T06:42:47;17.13;;;13.53;;
2213;SDS011;1113;42.018;23.986;2022-08-21T06:45:14;13.80;;;10.60;;
2213;SDS011;1113;42.018;23.986;2022-08-21T06:47:42;14.40;;;11.33;;
2213;SDS011;1113;42.018;23.986;2022-08-21T06:50:08;14.47;;;12.37;;
2213;SDS011;1113;42.018;23.986;2022-08-21T06:52:36;21.87;;;16.10;;
2213;SDS011;1113;42.018;23.986;2022-08-21T06:55:04;16.77;;;14.70;;
2213;SDS011;1113;42.018;23.986;2022-08-21T06:57:31;14.60;;;12.17;;
2213;SDS011;1113;42.018;23.986;2022-08-21T06:59:58;9.93;;;8.93;;
2213;SDS011;1113;42.018;23.986;2022-08-21T07:02:24;9.47;;;8.47;;
2213;SDS011;1113;42.018;23.986;2022-08-21T07:04:52;11.20;;;8.20;;
2213;SDS011;1113;42.018;23.986;2022-08-21T07:07:19;10.70;;;8.87;;
2213;SDS011;1113;42.018;23.986;2022-08-21T07:09:45;17.67;;;11.93;;
2213;SDS011;1113;42.018;23.986;2022-08-21T07:12:12;17.73;;;11.07;;
2213;SDS011;1113;42.018;23.986;2022-08-21T07:14:38;13.63;;;11.07;;
2213;SDS011;1113;42.018;23.986;2022-08-21T07:17:05;11.83;;;10.50;;
2213;SDS011;1113;42.018;23.986;2022-08-21T07:19:31;18.00;;;10.33;;
2213;SDS011;1113;42.018;23.986;2022-08-21T07:22:00;14.87;;;11.87;;
2213;SDS011;1113;42.018;23.986;2022-08-21T07:24:27;19.30;;;11.47;;
2213;SDS011;1113;42.018;23.986;2022-08-21T07:26:54;14.00;;;9.70;;
2213;SDS011;1113;42.018;23.986;2022-08-21T07:29:20;13.07;;;10.17;;
2213;SDS011;1113;42.018;23.986;2022-08-21T07:31:47;11.80;;;10.40;;
2213;SDS011;1113;42.018;23.986;2022-08-21T07:34:14;16.30;;;13.00;;
2213;SDS011;1113;42.018;23.986;2022-08-21T07:36:40;12.73;;;11.43;;
2213;SDS011;1113;42.018;23.986;2022-08-21T07:39:09;15.00;;;11.33;;
2213;SDS011;1113;42.018;23.986;2022-08-21T07:41:35;13.03;;;10.30;;
2213;SDS011;1113;42.018;23.986;2022-08-21T07:44:02;13.20;;;10.73;;
2213;SDS011;1113;42.018;23.986;2022-08-21T07:46:29;12.20;;;9.53;;
2213;SDS011;1113;42.018;23.986;2022-08-21T07:48:56;13.20;;;10.70;;
2213;SDS011;1113;42.018;23.986;2022-08-21T07:51:23;14.80;;;11.20;;
2213;SDS011;1113;42.018;23.986;2022-08-21T07:53:52;18.57;;;12.07;;
2213;SDS011;1113;42.018;23.986;2022-08-21T07:56:20;18.00;;;11.60;;
2213;SDS011;1113;42.018;23.986;2022-08-21T07:58:47;13.53;;;10.80;;
2213;SDS011;1113;42.018;23.986;2022-08-21T08:01:14;13.77;;;12.37;;
2213;SDS011;1113;42.018;23.986;2022-08-21T08:03:41;17.30;;;11.40;;
2213;SDS011;1113;42.018;23.986;2022-08-21T08:06:07;14.60;;;11.60;;
2213;SDS011;1113;42.018;23.986;2022-08-21T08:08:37;13.90;;;11.47;;
2213;SDS011;1113;42.018;23.986;2022-08-21T08:11:04;14.37;;;11.97;;
2213;SDS011;1113;42.018;23.986;2022-08-21T08:13:37;15.80;;;11.37;;
2213;SDS011;1113;42.018;23.986;2022-08-21T08:16:04;19.67;;;16.47;;
2213;SDS011;1113;42.018;23.986;2022-08-21T08:18:30;16.13;;;14.10;;
2213;SDS011;1113;42.018;23.986;2022-08-21T08:20:57;14.73;;;13.17;;
2213;SDS011;1113;42.018;23.986;2022-08-21T08:23:26;13.27;;;11.87;;
2213;SDS011;1113;42.018;23.986;2022-08-21T08:26:07;16.27;;;11.87;;
2213;SDS011;1113;42.018;23.986;2022-08-21T08:28:35;13.13;;;11.80;;
2213;SDS011;1113;42.018;23.986;2022-08-21T08:31:01;14.50;;;11.50;;
2213;SDS011;1113;42.018;23.986;2022-08-21T08:33:28;12.83;;;11.47;;
2213;SDS011;1113;42.018;23.986;2022-08-21T08:35:55;13.60;;;11.60;;
2213;SDS011;1113;42.018;23.986;2022-08-21T08:38:23;17.27;;;11.50;;
2213;SDS011;1113;42.018;23.986;2022-08-21T08:40:52;13.47;;;11.87;;
2213;SDS011;1113;42.018;23.986;2022-08-21T08:43:19;16.53;;;11.83;;
2213;SDS011;1113;42.018;23.986;2022-08-21T08:45:49;15.57;;;12.53;;
2213;SDS011;1113;42.018;23.986;2022-08-21T08:48:19;12.83;;;11.23;;
2213;SDS011;1113;42.018;23.986;2022-08-21T08:50:54;13.40;;;11.80;;
2213;SDS011;1113;42.018;23.986;2022-08-21T08:53:22;13.70;;;12.30;;
2213;SDS011;1113;42.018;23.986;2022-08-21T08:55:50;14.40;;;12.90;;
2213;SDS011;1113;42.018;23.986;2022-08-21T08:58:19;15.50;;;12.50;;
2213;SDS011;1113;42.018;23.986;2022-08-21T09:00:49;16.50;;;13.90;;
2213;SDS011;1113;42.018;23.986;2022-08-21T09:03:16;16.90;;;13.70;;
2213;SDS011;1113;42.018;23.986;2022-08-21T09:05:45;15.20;;;13.60;;
2213;SDS011;1113;42.018;23.986;2022-08-21T09:08:27;13.07;;;11.40;;
2213;SDS011;1113;42.018;23.986;2022-08-21T09:10:59;16.07;;;12.60;;
2213;SDS011;1113;42.018;23.986;2022-08-21T09:13:29;15.80;;;13.73;;
2213;SDS011;1113;42.018;23.986;2022-08-21T09:16:03;16.00;;;12.90;;
2213;SDS011;1113;42.018;23.986;2022-08-21T09:18:34;14.73;;;12.40;;
2213;SDS011;1113;42.018;23.986;2022-08-21T09:21:06;13.97;;;12.47;;
2213;SDS011;1113;42.018;23.986;2022-08-21T09:23:36;14.03;;;11.40;;
2213;SDS011;1113;42.018;23.986;2022-08-21T09:26:07;16.10;;;12.20;;
2213;SDS011;1113;42.018;23.986;2022-08-21T09:28:38;13.63;;;11.50;;
2213;SDS011;1113;42.018;23.986;2022-08-21T09:31:08;17.00;;;11.00;;
2213;SDS011;1113;42.018;23.986;2022-08-21T09:33:35;11.93;;;10.70;;
2213;SDS011;1113;42.018;23.986;2022-08-21T09:36:01;11.90;;;10.80;;
2213;SDS011;1113;42.018;23.986;2022-08-21T09:38:30;12.40;;;11.10;;
2213;SDS011;1113;42.018;23.986;2022-08-21T09:40:59;13.10;;;11.70;;
2213;SDS011;1113;42.018;23.986;2022-08-21T09:43:26;12.35;;;10.93;;
2213;SDS011;1113;42.018;23.986;2022-08-21T09:46:01;16.37;;;11.20;;
2213;SDS011;1113;42.018;23.986;2022-08-21T09:48:29;11.53;;;10.40;;
2213;SDS011;1113;42.018;23.986;2022-08-21T09:51:06;12.93;;;10.57;;
2213;SDS011;1113;42.018;23.986;2022-08-21T09:53:33;14.67;;;10.37;;
2213;SDS011;1113;42.018;23.986;2022-08-21T09:56:02;11.03;;;9.23;;
2213;SDS011;1113;42.018;23.986;2022-08-21T09:58:46;10.50;;;9.47;;
2213;SDS011;1113;42.018;23.986;2022-08-21T10:01:14;13.63;;;10.00;;
2213;SDS011;1113;42.018;23.986;2022-08-21T10:03:43;15.13;;;10.73;;
2213;SDS011;1113;42.018;23.986;2022-08-21T10:06:10;11.33;;;10.03;;
2213;SDS011;1113;42.018;23.986;2022-08-21T10:08:46;12.30;;;11.00;;
2213;SDS011;1113;42.018;23.986;2022-08-21T10:11:13;14.67;;;10.30;;
2213;SDS011;1113;42.018;23.986;2022-08-21T10:13:43;12.60;;;10.00;;
2213;SDS011;1113;42.018;23.986;2022-08-21T10:16:15;12.70;;;11.30;;
2213;SDS011;1113;42.018;23.986;2022-08-21T10:18:45;12.10;;;10.70;;
2213;SDS011;1113;42.018;23.986;2022-08-21T10:21:15;12.93;;;10.93;;
2213;SDS011;1113;42.018;23.986;2022-08-21T10:23:50;11.00;;;9.90;;
2213;SDS011;1113;42.018;23.986;2022-08-21T10:26:20;12.93;;;10.57;;
2213;SDS011;1113;42.018;23.986;2022-08-21T10:28:52;10.63;;;9.57;;
2213;SDS011;1113;42.018;23.986;2022-08-21T10:31:24;13.13;;;11.13;;
2213;SDS011;1113;42.018;23.986;2022-08-21T10:33:58;12.50;;;10.80;;
2213;SDS011;1113;42.018;23.986;2022-08-21T10:36:31;12.47;;;10.90;;
2213;SDS011;1113;42.018;23.986;2022-08-21T10:39:03;13.63;;;11.57;;
2213;SDS011;1113;42.018;23.986;2022-08-21T10:41:39;13.17;;;10.80;;
2213;SDS011;1113;42.018;23.986;2022-08-21T10:44:12;13.40;;;11.97;;
2213;SDS011;1113;42.018;23.986;2022-08-21T10:46:43;14.87;;;13.37;;
2213;SDS011;1113;42.018;23.986;2022-08-21T10:49:16;13.77;;;12.10;;
2213;SDS011;1113;42.018;23.986;2022-08-21T10:51:46;13.00;;;11.43;;
2213;SDS011;1113;42.018;23.986;2022-08-21T10:54:17;14.27;;;12.77;;
2213;SDS011;1113;42.018;23.986;2022-08-21T10:56:47;14.40;;;12.93;;
2213;SDS011;1113;42.018;23.986;2022-08-21T10:59:22;14.77;;;12.30;;
2213;SDS011;1113;42.018;23.986;2022-08-21T11:01:53;15.90;;;12.80;;
2213;SDS011;1113;42.018;23.986;2022-08-21T11:04:23;14.20;;;11.90;;
2213;SDS011;1113;42.018;23.986;2022-08-21T11:06:52;13.77;;;12.27;;
2213;SDS011;1113;42.018;23.986;2022-08-21T11:09:20;13.70;;;12.30;;
2213;SDS011;1113;42.018;23.986;2022-08-21T11:11:50;18.40;;;14.47;;
2213;SDS011;1113;42.018;23.986;2022-08-21T11:14:20;20.23;;;13.43;;
2213;SDS011;1113;42.018;23.986;2022-08-21T11:16:49;17.60;;;15.77;;
2213;SDS011;1113;42.018;23.986;2022-08-21T11:19:20;15.67;;;13.70;;
2213;SDS011;1113;42.018;23.986;2022-08-21T11:21:50;17.50;;;12.30;;
2213;SDS011;1113;42.018;23.986;2022-08-21T11:24:23;15.57;;;11.57;;
2213;SDS011;1113;42.018;23.986;2022-08-21T11:26:52;15.50;;;13.90;;
2213;SDS011;1113;42.018;23.986;2022-08-21T11:29:22;16.07;;;13.90;;
2213;SDS011;1113;42.018;23.986;2022-08-21T11:31:57;15.13;;;13.63;;
2213;SDS011;1113;42.018;23.986;2022-08-21T11:34:30;19.07;;;16.57;;
2213;SDS011;1113;42.018;23.986;2022-08-21T11:37:04;18.80;;;16.90;;
2213;SDS011;1113;42.018;23.986;2022-08-21T11:39:35;18.50;;;16.53;;
2213;SDS011;1113;42.018;23.986;2022-08-21T11:42:06;10.90;;;9.70;;
2213;SDS011;1113;42.018;23.986;2022-08-21T11:44:44;10.30;;;8.07;;
2213;SDS011;1113;42.018;23.986;2022-08-21T11:47:18;11.60;;;9.20;;
2213;SDS011;1113;42.018;23.986;2022-08-21T11:49:49;11.70;;;8.10;;
2213;SDS011;1113;42.018;23.986;2022-08-21T11:52:19;10.97;;;8.37;;
2213;SDS011;1113;42.018;23.986;2022-08-21T11:54:48;10.70;;;8.87;;
2213;SDS011;1113;42.018;23.986;2022-08-21T11:57:17;9.30;;;7.90;;
2213;SDS011;1113;42.018;23.986;2022-08-21T11:59:48;9.27;;;8.33;;
2213;SDS011;1113;42.018;23.986;2022-08-21T12:02:18;12.30;;;10.17;;
2213;SDS011;1113;42.018;23.986;2022-08-21T12:04:46;13.37;;;11.67;;
2213;SDS011;1113;42.018;23.986;2022-08-21T12:07:14;17.63;;;13.17;;
2213;SDS011;1113;42.018;23.986;2022-08-21T12:09:51;16.60;;;14.00;;
2213;SDS011;1113;42.018;23.986;2022-08-21T12:12:23;19.10;;;13.53;;
2213;SDS011;1113;42.018;23.986;2022-08-21T12:14:50;18.13;;;12.07;;
2213;SDS011;1113;42.018;23.986;2022-08-21T12:17:19;13.40;;;11.13;;
2213;SDS011;1113;42.018;23.986;2022-08-21T12:19:56;14.73;;;11.27;;
2213;SDS011;1113;42.018;23.986;2022-08-21T12:22:24;12.97;;;10.80;;
2213;SDS011;1113;42.018;23.986;2022-08-21T12:25:07;14.73;;;11.00;;
2213;SDS011;1113;42.018;23.986;2022-08-21T12:27:41;11.13;;;9.97;;
2213;SDS011;1113;42.018;23.986;2022-08-21T12:30:19;9.70;;;8.70;;
2213;SDS011;1113;42.018;23.986;2022-08-21T12:32:54;12.10;;;10.23;;
2213;SDS011;1113;42.018;23.986;2022-08-21T12:35:21;14.17;;;10.57;;
2213;SDS011;1113;42.018;23.986;2022-08-21T12:37:52;10.20;;;9.20;;
2213;SDS011;1113;42.018;23.986;2022-08-21T12:40:31;16.80;;;10.00;;
2213;SDS011;1113;42.018;23.986;2022-08-21T12:43:00;11.23;;;9.70;;
2213;SDS011;1113;42.018;23.986;2022-08-21T12:45:28;12.83;;;11.37;;
2213;SDS011;1113;42.018;23.986;2022-08-21T12:47:56;16.37;;;13.20;;
2213;SDS011;1113;42.018;23.986;2022-08-21T12:50:26;15.30;;;13.73;;
2213;SDS011;1113;42.018;23.986;2022-08-21T12:52:56;13.43;;;12.13;;
2213;SDS011;1113;42.018;23.986;2022-08-21T12:55:28;12.60;;;11.30;;
2213;SDS011;1113;42.018;23.986;2022-08-21T12:57:56;14.30;;;12.90;;
2213;SDS011;1113;42.018;23.986;2022-08-21T13:00:23;15.10;;;12.67;;
2213;SDS011;1113;42.018;23.986;2022-08-21T13:02:50;13.27;;;11.80;;
2213;SDS011;1113;42.018;23.986;2022-08-21T13:05:19;15.10;;;11.60;;
2213;SDS011;1113;42.018;23.986;2022-08-21T13:07:49;14.93;;;11.70;;
2213;SDS011;1113;42.018;23.986;2022-08-21T13:10:18;14.93;;;11.80;;
2213;SDS011;1113;42.018;23.986;2022-08-21T13:12:45;12.53;;;11.23;;
2213;SDS011;1113;42.018;23.986;2022-08-21T13:15:13;13.53;;;11.10;;
2213;SDS011;1113;42.018;23.986;2022-08-21T13:17:41;12.80;;;10.70;;
2213;SDS011;1113;42.018;23.986;2022-08-21T13:20:10;13.53;;;12.20;;
2213;SDS011;1113;42.018;23.986;2022-08-21T13:22:44;15.73;;;13.60;;
2213;SDS011;1113;42.018;23.986;2022-08-21T13:25:12;14.00;;;12.20;;
2213;SDS011;1113;42.018;23.986;2022-08-21T13:27:39;15.30;;;13.70;;
2213;SDS011;1113;42.018;23.986;2022-08-21T13:30:08;14.50;;;13.07;;
2213;SDS011;1113;42.018;23.986;2022-08-21T13:32:38;14.20;;;11.90;;
2213;SDS011;1113;42.018;23.986;2022-08-21T13:35:13;14.63;;;11.80;;
2213;SDS011;1113;42.018;23.986;2022-08-21T13:37:40;15.43;;;12.40;;
2213;SDS011;1113;42.018;23.986;2022-08-21T13:40:09;13.80;;;11.70;;
2213;SDS011;1113;42.018;23.986;2022-08-21T13:42:37;10.27;;;9.23;;
2213;SDS011;1113;42.018;23.986;2022-08-21T13:45:04;10.00;;;9.10;;
2213;SDS011;1113;42.018;23.986;2022-08-21T13:47:38;10.30;;;9.30;;
2213;SDS011;1113;42.018;23.986;2022-08-21T13:50:05;12.10;;;9.73;;
2213;SDS011;1113;42.018;23.986;2022-08-21T13:52:32;12.57;;;11.30;;
2213;SDS011;1113;42.018;23.986;2022-08-21T13:55:00;12.97;;;10.40;;
2213;SDS011;1113;42.018;23.986;2022-08-21T13:57:27;11.50;;;8.87;;
2213;SDS011;1113;42.018;23.986;2022-08-21T14:00:09;9.80;;;8.80;;
2213;SDS011;1113;42.018;23.986;2022-08-21T14:02:39;11.30;;;10.13;;
2213;SDS011;1113;42.018;23.986;2022-08-21T14:05:06;11.10;;;9.80;;
2213;SDS011;1113;42.018;23.986;2022-08-21T14:07:33;11.13;;;9.73;;
2213;SDS011;1113;42.018;23.986;2022-08-21T14:10:01;11.33;;;9.20;;
2213;SDS011;1113;42.018;23.986;2022-08-21T14:12:29;11.47;;;10.37;;
2213;SDS011;1113;42.018;23.986;2022-08-21T14:15:01;12.33;;;10.90;;
2213;SDS011;1113;42.018;23.986;2022-08-21T14:17:28;13.83;;;11.57;;
2213;SDS011;1113;42.018;23.986;2022-08-21T14:19:57;15.70;;;11.57;;
2213;SDS011;1113;42.018;23.986;2022-08-21T14:22:28;11.80;;;10.60;;
2213;SDS011;1113;42.018;23.986;2022-08-21T14:24:59;12.33;;;11.07;;
2213;SDS011;1113;42.018;23.986;2022-08-21T14:27:27;13.83;;;10.83;;
2213;SDS011;1113;42.018;23.986;2022-08-21T14:29:57;12.70;;;11.40;;
2213;SDS011;1113;42.018;23.986;2022-08-21T14:32:25;11.50;;;9.07;;
2213;SDS011;1113;42.018;23.986;2022-08-21T14:34:54;11.73;;;9.77;;
2213;SDS011;1113;42.018;23.986;2022-08-21T14:37:22;10.13;;;8.93;;
2213;SDS011;1113;42.018;23.986;2022-08-21T14:39:50;9.70;;;8.80;;
2213;SDS011;1113;42.018;23.986;2022-08-21T14:42:16;11.00;;;8.47;;
2213;SDS011;1113;42.018;23.986;2022-08-21T14:44:43;9.10;;;7.80;;
2213;SDS011;1113;42.018;23.986;2022-08-21T14:47:10;8.67;;;7.53;;
2213;SDS011;1113;42.018;23.986;2022-08-21T14:49:37;9.00;;;8.10;;